Terminal Aerodrome Forecast
Issued by NWS

Home | Current Version | Previous Version | Text Only | Print | Product List | Glossary On
Versions: 1 2 3 4 5 6 7 8 9 10 11 12 13 14 15 16 17
000
FTUS41 KBOX 132114 AAA
TAFBED
TAF AMD
KBED 132114Z 1321/1418 26015G28KT P6SM SCT040
     FM140000 25010G20KT P6SM SKC
     FM140300 25010KT P6SM SKC
     FM140800 25007KT P6SM OVC080
     FM141500 29009G20KT P6SM BKN060
     FM141700 29012KT P6SM SCT080=

USA.gov is the U.S. government's official web portal to all federal, state and local government web resources and services.